createdAt,value
2019-02-16T00:00:06.771Z,102226.78
2019-02-16T00:02:38.322Z,102222.73
2019-02-16T00:05:08.658Z,102221.98
2019-02-16T00:07:38.771Z,102224.62
2019-02-16T00:10:10.691Z,102232.97
2019-02-16T00:12:40.669Z,102232.64
2019-02-16T00:15:10.612Z,102231.27
2019-02-16T00:17:40.888Z,102231.33
2019-02-16T00:20:10.849Z,102230.87
2019-02-16T00:22:41.129Z,102226.86
2019-02-16T00:25:12.372Z,102220.57
2019-02-16T00:27:42.321Z,102224.91
2019-02-16T00:30:13.339Z,102232.73
2019-02-16T00:32:44.416Z,102233.52
2019-02-16T00:35:16.675Z,102225.23
2019-02-16T00:37:46.625Z,102225.30
2019-02-16T00:40:16.685Z,102221.81
2019-02-16T00:42:46.653Z,102215.70
2019-02-16T00:45:16.556Z,102218.80
2019-02-16T00:47:51.817Z,102220.67
2019-02-16T00:50:22.116Z,102215.88
2019-02-16T00:52:52.384Z,102216.80
2019-02-16T00:55:22.337Z,102214.23
2019-02-16T00:57:54.717Z,102208.98
2019-02-16T01:00:24.628Z,102210.29
2019-02-16T01:02:54.505Z,102204.11
2019-02-16T01:05:24.486Z,102208.52
2019-02-16T01:08:01.642Z,102202.33
2019-02-16T01:10:26.477Z,102199.24
2019-02-16T01:12:56.425Z,102200.95
2019-02-16T01:15:26.374Z,102197.36
2019-02-16T01:17:56.326Z,102198.67
2019-02-16T01:20:26.199Z,102197.00
2019-02-16T01:22:56.079Z,102195.90
2019-02-16T01:25:26.305Z,102193.34
2019-02-16T01:27:56.578Z,102199.59
2019-02-16T01:30:26.513Z,102190.98
2019-02-16T01:32:56.318Z,102182.31
2019-02-16T01:35:26.309Z,102182.55
2019-02-16T01:37:56.275Z,102178.68
2019-02-16T01:40:26.292Z,102171.78
2019-02-16T01:42:56.490Z,102173.66
2019-02-16T01:45:26.791Z,102176.43
2019-02-16T01:47:56.751Z,102173.44
2019-02-16T01:50:26.721Z,102173.12
2019-02-16T01:52:56.895Z,102171.02
2019-02-16T01:55:26.857Z,102176.73
2019-02-16T01:57:56.802Z,102169.05
2019-02-16T02:00:26.761Z,102171.81
2019-02-16T02:02:57.100Z,102171.59
2019-02-16T02:05:27.173Z,102169.89
2019-02-16T02:07:57.056Z,102167.65
2019-02-16T02:10:27.122Z,102170.21
2019-02-16T02:13:00.810Z,102177.92
2019-02-16T02:15:31.316Z,102175.47
2019-02-16T02:18:02.682Z,102171.20
2019-02-16T02:20:32.904Z,102177.44
2019-02-16T02:23:02.869Z,102172.72
2019-02-16T02:25:32.814Z,102177.19
2019-02-16T02:28:02.780Z,102169.60
2019-02-16T02:30:34.547Z,102174.20
2019-02-16T02:33:08.654Z,102174.92
2019-02-16T02:35:38.614Z,102168.98
2019-02-16T02:38:08.503Z,102160.84
2019-02-16T02:40:38.322Z,102163.59
2019-02-16T02:43:08.271Z,102172.00
2019-02-16T02:45:38.480Z,102168.59
2019-02-16T02:48:09.127Z,102165.17
2019-02-16T02:50:44.505Z,102165.56
2019-02-16T02:53:15.505Z,102158.61
2019-02-16T02:55:45.429Z,102163.10
2019-02-16T02:58:15.292Z,102155.75
2019-02-16T03:00:45.241Z,102158.11
2019-02-16T03:03:15.107Z,102158.17
2019-02-16T03:05:44.992Z,102152.98
2019-02-16T03:08:18.032Z,102151.80
2019-02-16T03:10:48.203Z,102148.55
2019-02-16T03:13:18.241Z,102150.38
2019-02-16T03:15:48.186Z,102148.67
2019-02-16T03:18:18.054Z,102148.34
2019-02-16T03:20:48.135Z,102146.70
2019-02-16T03:23:21.050Z,102140.53
2019-02-16T03:26:01.221Z,102140.08
2019-02-16T03:28:44.245Z,102141.84
2019-02-16T03:31:57.488Z,102138.77
2019-02-16T03:34:35.175Z,102133.58
2019-02-16T03:37:43.570Z,102132.39
2019-02-16T03:40:13.479Z,102130.84
2019-02-16T03:42:43.430Z,102127.56
2019-02-16T03:45:13.372Z,102120.67
2019-02-16T03:47:47.012Z,102124.27
2019-02-16T03:50:15.685Z,102123.12
2019-02-16T03:52:49.932Z,102121.41
2019-02-16T03:55:19.876Z,102128.36
2019-02-16T03:57:49.852Z,102124.89
2019-02-16T04:00:19.715Z,102118.52
2019-02-16T04:02:49.613Z,102120.74
2019-02-16T04:05:21.451Z,102119.03
2019-02-16T04:07:51.596Z,102121.66
2019-02-16T04:10:21.532Z,102125.99
2019-02-16T04:12:51.517Z,102128.09
2019-02-16T04:15:21.800Z,102125.93
2019-02-16T04:17:52.019Z,102123.77
2019-02-16T04:20:26.096Z,102121.53
2019-02-16T04:22:57.889Z,102110.52
2019-02-16T04:25:28.219Z,102117.08
2019-02-16T04:27:58.097Z,102117.87
2019-02-16T04:30:29.431Z,102112.92
2019-02-16T04:32:59.473Z,102109.84
2019-02-16T04:35:29.333Z,102108.13
2019-02-16T04:37:59.633Z,102102.36
2019-02-16T04:40:29.510Z,102105.38
2019-02-16T04:43:01.485Z,102108.52
2019-02-16T04:45:31.431Z,102106.42
2019-02-16T04:48:01.624Z,102105.11
2019-02-16T04:50:31.503Z,102105.57
2019-02-16T04:53:01.370Z,102110.52
2019-02-16T04:55:31.340Z,102112.02
2019-02-16T04:58:01.121Z,102111.29
2019-02-16T05:00:31.261Z,102112.79
2019-02-16T05:03:01.123Z,102104.74
2019-02-16T05:05:31.010Z,102103.62
2019-02-16T05:08:01.245Z,102106.82
2019-02-16T05:10:31.538Z,102113.93
2019-02-16T05:13:01.480Z,102118.38
2019-02-16T05:15:31.728Z,102115.77
2019-02-16T05:18:01.585Z,102105.27
2019-02-16T05:20:31.464Z,102107.83
2019-02-16T05:23:04.715Z,102109.91
2019-02-16T05:25:36.526Z,102105.58
2019-02-16T05:28:07.542Z,102106.98
2019-02-16T05:30:39.217Z,102102.64
2019-02-16T05:33:09.946Z,102106.25
2019-02-16T05:35:40.295Z,102108.41
2019-02-16T05:38:18.355Z,102108.08
2019-02-16T05:40:51.293Z,102109.84
2019-02-16T05:43:22.396Z,102104.27
2019-02-16T05:45:56.214Z,102103.41
2019-02-16T05:48:30.108Z,102106.61
2019-02-16T05:51:04.315Z,102103.13
2019-02-16T05:53:35.056Z,102100.39
2019-02-16T05:56:08.302Z,102093.84
2019-02-16T05:58:40.254Z,102104.72
2019-02-16T06:01:10.221Z,102103.47
2019-02-16T06:04:01.459Z,102104.38
2019-02-16T06:06:34.436Z,102112.70
2019-02-16T06:09:10.298Z,102098.95
2019-02-16T06:11:43.863Z,102102.49
2019-02-16T06:14:22.571Z,102111.67
2019-02-16T06:16:57.129Z,102111.67
2019-02-16T06:19:30.612Z,102109.05
2019-02-16T06:22:00.774Z,102108.66
2019-02-16T06:24:32.164Z,102113.50
2019-02-16T06:27:03.129Z,102107.92
2019-02-16T06:29:32.994Z,102105.36
2019-02-16T06:32:04.601Z,102110.60
2019-02-16T06:34:36.176Z,102122.85
2019-02-16T06:37:22.609Z,102122.97
2019-02-16T06:39:52.770Z,102112.64
2019-02-16T06:42:22.722Z,102120.50
2019-02-16T06:44:52.646Z,102127.52
2019-02-16T06:47:22.544Z,102122.33
2019-02-16T06:49:52.761Z,102118.73
2019-02-16T06:52:22.651Z,102126.84
2019-02-16T06:54:52.778Z,102127.19
2019-02-16T06:57:25.676Z,102135.05
2019-02-16T06:59:55.549Z,102137.39
2019-02-16T07:02:27.482Z,102138.70
2019-02-16T07:04:59.053Z,102143.88
2019-02-16T07:07:33.599Z,102143.43
2019-02-16T07:10:03.633Z,102146.51
2019-02-16T07:12:33.536Z,102146.17
2019-02-16T07:15:05.643Z,102147.17
2019-02-16T07:18:09.707Z,102142.33
2019-02-16T07:20:39.684Z,102147.02
2019-02-16T07:23:09.569Z,102152.66
2019-02-16T07:25:39.446Z,102159.22
2019-02-16T07:28:15.646Z,102156.48
2019-02-16T07:30:45.821Z,102164.69
2019-02-16T07:33:17.430Z,102155.33
2019-02-16T07:35:47.496Z,102157.28
2019-02-16T07:38:17.460Z,102156.13
2019-02-16T07:40:48.558Z,102151.56
2019-02-16T07:43:37.504Z,102150.89
2019-02-16T07:46:13.130Z,102152.60
2019-02-16T07:48:51.979Z,102154.70
2019-02-16T07:51:40.830Z,102159.03
2019-02-16T07:54:31.357Z,102154.12
2019-02-16T07:57:09.129Z,102164.50
2019-02-16T07:59:44.039Z,102159.95
2019-02-16T08:02:24.690Z,102161.14
2019-02-16T08:05:22.781Z,102171.05
2019-02-16T08:08:11.592Z,102181.03
2019-02-16T08:10:48.302Z,102182.67
2019-02-16T08:13:31.227Z,102178.68
2019-02-16T08:16:21.672Z,102184.30
2019-02-16T08:19:09.690Z,102178.40
2019-02-16T08:22:01.700Z,102187.46
2019-02-16T08:24:48.295Z,102186.48
2019-02-16T08:27:42.693Z,102183.73
2019-02-16T08:30:43.744Z,102176.55
2019-02-16T08:33:32.660Z,102178.20
2019-02-16T08:36:27.974Z,102184.18
2019-02-16T08:39:17.200Z,102182.22
2019-02-16T08:42:09.004Z,102185.48
2019-02-16T08:45:08.324Z,102180.42
2019-02-16T08:47:45.281Z,102173.61
2019-02-16T08:50:49.742Z,102175.16
2019-02-16T08:53:35.373Z,102178.96
2019-02-16T08:56:41.016Z,102179.63
2019-02-16T08:59:33.011Z,102178.64
2019-02-16T09:02:27.733Z,102177.48
2019-02-16T09:05:09.689Z,102180.77
2019-02-16T09:08:08.149Z,102172.98
2019-02-16T09:11:02.669Z,102171.41
2019-02-16T09:13:51.805Z,102172.91
2019-02-16T09:16:36.210Z,102159.92
2019-02-16T09:19:17.426Z,102157.80
2019-02-16T09:21:57.687Z,102156.64
2019-02-16T09:24:52.276Z,102151.18
2019-02-16T09:27:38.586Z,102139.64
2019-02-16T09:30:35.774Z,102137.26
2019-02-16T09:33:15.618Z,102140.42
2019-02-16T09:36:03.784Z,102140.53
2019-02-16T09:38:52.480Z,102138.83
2019-02-16T09:41:44.104Z,102152.62
2019-02-16T09:44:56.099Z,102145.33
2019-02-16T09:47:44.818Z,102143.58
2019-02-16T09:50:20.702Z,102144.11
2019-02-16T09:53:15.363Z,102149.39
2019-02-16T09:56:10.656Z,102142.48
2019-02-16T09:58:47.085Z,102143.59
2019-02-16T10:01:41.160Z,102145.72
2019-02-16T10:04:36.046Z,102151.81
2019-02-16T10:07:33.832Z,102145.42
2019-02-16T10:10:26.305Z,102148.39
2019-02-16T10:13:11.961Z,102152.67
2019-02-16T10:16:04.605Z,102157.02
2019-02-16T10:18:56.644Z,102164.08
2019-02-16T10:21:51.526Z,102168.48
2019-02-16T10:24:39.749Z,102156.20
2019-02-16T10:27:26.001Z,102165.06
2019-02-16T10:30:01.443Z,102165.20
2019-02-16T10:33:05.467Z,102159.57
2019-02-16T10:35:56.964Z,102162.04
2019-02-16T10:38:56.623Z,102168.75
2019-02-16T10:41:48.412Z,102170.30
2019-02-16T10:44:31.136Z,102162.01
2019-02-16T10:47:24.670Z,102174.94
2019-02-16T10:50:32.057Z,102165.52
2019-02-16T10:53:12.734Z,102157.80
2019-02-16T10:55:53.313Z,102159.95
2019-02-16T10:58:35.912Z,102166.34
2019-02-16T11:01:34.180Z,102170.09
2019-02-16T11:04:13.637Z,102170.53
2019-02-16T11:07:04.856Z,102164.19
2019-02-16T11:09:59.908Z,102162.91
2019-02-16T11:12:48.100Z,102162.20
2019-02-16T11:15:45.491Z,102159.59
2019-02-16T11:18:33.630Z,102151.80
2019-02-16T11:21:34.582Z,102146.34
2019-02-16T11:24:09.878Z,102139.77
2019-02-16T11:26:47.505Z,102135.93
2019-02-16T11:29:31.627Z,102135.83
2019-02-16T11:32:20.560Z,102130.24
2019-02-16T11:35:06.672Z,102135.64
2019-02-16T11:37:44.013Z,102131.51
2019-02-16T11:40:36.237Z,102128.75
2019-02-16T11:43:17.709Z,102126.95
2019-02-16T11:46:05.197Z,102123.45
2019-02-16T11:48:50.792Z,102115.48
2019-02-16T11:51:37.404Z,102117.53
2019-02-16T11:54:15.760Z,102114.66
2019-02-16T11:57:13.280Z,102112.48
2019-02-16T11:59:54.650Z,102111.85
2019-02-16T12:02:49.491Z,102116.20
2019-02-16T12:05:41.528Z,102109.36
2019-02-16T12:08:36.633Z,102098.33
2019-02-16T12:11:31.610Z,102108.31
2019-02-16T12:14:23.081Z,102101.56
2019-02-16T12:17:08.608Z,102102.00
2019-02-16T12:20:12.997Z,102103.91
2019-02-16T12:23:11.050Z,102101.52
2019-02-16T12:25:56.101Z,102091.92
2019-02-16T12:28:50.874Z,102086.52
2019-02-16T12:31:38.717Z,102084.03
2019-02-16T12:34:26.533Z,102084.62
2019-02-16T12:37:15.345Z,102088.38
2019-02-16T12:40:16.661Z,102081.39
2019-02-16T12:43:03.783Z,102081.64
2019-02-16T12:45:51.563Z,102086.83
2019-02-16T12:48:32.980Z,102076.45
2019-02-16T12:51:21.939Z,102075.36
2019-02-16T12:54:09.612Z,102070.89
2019-02-16T12:57:07.653Z,102069.08
2019-02-16T12:59:56.540Z,102062.92
2019-02-16T13:02:44.132Z,102061.45
2019-02-16T13:05:39.200Z,102059.85
2019-02-16T13:08:13.485Z,102067.71
2019-02-16T13:11:08.243Z,102057.10
2019-02-16T13:13:43.830Z,102053.37
2019-02-16T13:16:42.058Z,102051.33
2019-02-16T13:19:42.955Z,102050.21
2019-02-16T13:22:25.654Z,102052.41
2019-02-16T13:25:23.846Z,102051.32
2019-02-16T13:28:07.887Z,102050.11
2019-02-16T13:30:53.486Z,102052.94
2019-02-16T13:33:33.198Z,102044.70
2019-02-16T13:36:18.915Z,102050.20
2019-02-16T13:39:07.806Z,102049.23
2019-02-16T13:41:49.332Z,102047.14
2019-02-16T13:44:33.711Z,102042.90
2019-02-16T13:47:17.865Z,102041.56
2019-02-16T13:50:01.595Z,102050.11
2019-02-16T13:52:56.917Z,102043.92
2019-02-16T13:55:52.541Z,102046.64
2019-02-16T13:58:44.596Z,102035.31
2019-02-16T14:01:21.623Z,102032.86
2019-02-16T14:04:07.322Z,102029.02
2019-02-16T14:06:56.290Z,102032.76
2019-02-16T14:09:44.415Z,102033.59
2019-02-16T14:12:22.238Z,102031.75
2019-02-16T14:15:00.668Z,102030.73
2019-02-16T14:17:48.035Z,102022.98
2019-02-16T14:20:18.008Z,102022.09
2019-02-16T14:22:48.318Z,102019.42
2019-02-16T14:25:30.639Z,102013.86
2019-02-16T14:28:00.454Z,102016.53
2019-02-16T14:30:30.378Z,102011.47
2019-02-16T14:33:00.349Z,102012.81
2019-02-16T14:35:30.297Z,102010.41
2019-02-16T14:38:19.750Z,102008.73
2019-02-16T14:40:49.735Z,102010.13
2019-02-16T14:43:19.727Z,102010.83
2019-02-16T14:45:49.617Z,102002.47
2019-02-16T14:48:19.601Z,102008.16
2019-02-16T14:50:49.597Z,102006.83
2019-02-16T14:53:19.854Z,102008.56
2019-02-16T14:55:53.707Z,102006.17
2019-02-16T14:58:21.905Z,102005.80
2019-02-16T15:00:51.921Z,102007.66
2019-02-16T15:03:21.909Z,102009.09
2019-02-16T15:05:51.796Z,102007.84
2019-02-16T15:08:21.929Z,102003.64
2019-02-16T15:10:52.216Z,101999.48
2019-02-16T15:13:22.312Z,102002.16
2019-02-16T15:15:52.561Z,102000.03
2019-02-16T15:18:22.537Z,101998.30
2019-02-16T15:20:53.941Z,101998.30
2019-02-16T15:23:24.146Z,101995.48
2019-02-16T15:26:00.700Z,101997.47
2019-02-16T15:28:25.766Z,101995.69
2019-02-16T15:30:55.727Z,101992.24
2019-02-16T15:33:25.701Z,101990.52
2019-02-16T15:35:55.766Z,101986.98
2019-02-16T15:38:25.697Z,101989.28
2019-02-16T15:40:55.573Z,101998.42
2019-02-16T15:43:25.555Z,101993.18
2019-02-16T15:45:55.449Z,101999.09
2019-02-16T15:48:25.575Z,102000.92
2019-02-16T15:50:55.536Z,101994.76
2019-02-16T15:53:25.534Z,101992.47
2019-02-16T15:55:55.516Z,101987.84
2019-02-16T15:58:25.776Z,101990.09
2019-02-16T16:00:55.673Z,101985.92
2019-02-16T16:03:25.632Z,101983.20
2019-02-16T16:05:55.662Z,101982.55
2019-02-16T16:08:50.713Z,101977.78
2019-02-16T16:11:26.377Z,101982.05
2019-02-16T16:14:27.313Z,101980.88
2019-02-16T16:17:19.021Z,101985.49
2019-02-16T16:20:00.322Z,101987.28
2019-02-16T16:22:40.486Z,101982.42
2019-02-16T16:25:32.962Z,101983.02
2019-02-16T16:28:33.787Z,101983.11
2019-02-16T16:31:21.381Z,101980.46
2019-02-16T16:34:04.656Z,101976.59
2019-02-16T16:37:08.983Z,101972.03
2019-02-16T16:39:50.163Z,101978.16
2019-02-16T16:42:41.988Z,101978.71
2019-02-16T16:45:30.939Z,101978.35
2019-02-16T16:48:20.212Z,101983.23
2019-02-16T16:50:59.001Z,101985.55
2019-02-16T16:53:35.357Z,101985.94
2019-02-16T16:56:29.121Z,101985.22
2019-02-16T16:59:15.634Z,101982.02
2019-02-16T17:02:11.219Z,101989.69
2019-02-16T17:05:03.773Z,101990.72
2019-02-16T17:08:02.530Z,101992.54
2019-02-16T17:11:00.604Z,101995.17
2019-02-16T17:13:36.314Z,102000.94
2019-02-16T17:16:17.436Z,102003.48
2019-02-16T17:19:09.465Z,102000.94
2019-02-16T17:21:57.209Z,102001.10
2019-02-16T17:24:35.986Z,102004.31
2019-02-16T17:27:34.164Z,101999.95
2019-02-16T17:30:12.873Z,101998.16
2019-02-16T17:33:02.263Z,101998.05
2019-02-16T17:35:51.108Z,102007.45
2019-02-16T17:38:52.010Z,102004.05
2019-02-16T17:41:30.883Z,102004.95
2019-02-16T17:44:10.113Z,101996.36
2019-02-16T17:47:08.040Z,102007.94
2019-02-16T17:50:08.942Z,102001.72
2019-02-16T17:53:13.278Z,102004.18
2019-02-16T17:56:06.965Z,102005.81
2019-02-16T17:58:43.490Z,102005.97
2019-02-16T18:01:34.533Z,102003.84
2019-02-16T18:04:35.641Z,102008.16
2019-02-16T18:07:23.612Z,102003.60
2019-02-16T18:10:21.448Z,102005.25
2019-02-16T18:13:09.690Z,101995.26
2019-02-16T18:16:07.591Z,101997.23
2019-02-16T18:18:41.983Z,101997.48
2019-02-16T18:21:30.937Z,101992.93
2019-02-16T18:24:16.345Z,101995.84
2019-02-16T18:26:57.017Z,102002.28
2019-02-16T18:29:44.749Z,102007.09
2019-02-16T18:32:33.871Z,102006.47
2019-02-16T18:35:24.672Z,102002.67
2019-02-16T18:38:02.880Z,102009.58
2019-02-16T18:40:51.945Z,102002.06
2019-02-16T18:43:42.636Z,102005.09
2019-02-16T18:46:35.179Z,102008.95
2019-02-16T18:49:24.242Z,102015.84
2019-02-16T18:52:01.097Z,101997.79
2019-02-16T18:54:44.842Z,101998.56
2019-02-16T18:57:21.014Z,101994.91
2019-02-16T18:59:58.288Z,101991.31
2019-02-16T19:02:47.371Z,101989.91
2019-02-16T19:05:34.586Z,101997.43
2019-02-16T19:08:17.284Z,101988.79
2019-02-16T19:11:07.008Z,101988.57
2019-02-16T19:14:02.102Z,101993.06
2019-02-16T19:16:48.984Z,101995.31
2019-02-16T19:19:37.044Z,101996.55
2019-02-16T19:22:17.345Z,102000.89
2019-02-16T19:25:02.763Z,102005.30
2019-02-16T19:27:57.576Z,102010.19
2019-02-16T19:30:37.567Z,102010.73
2019-02-16T19:33:29.608Z,102008.27
2019-02-16T19:36:08.647Z,102013.80
2019-02-16T19:38:54.299Z,102014.20
2019-02-16T19:41:49.378Z,102012.28
2019-02-16T19:44:33.558Z,102009.45
2019-02-16T19:47:27.987Z,102004.89
2019-02-16T19:50:21.418Z,102008.38
2019-02-16T19:53:02.700Z,102008.91
2019-02-16T19:56:02.919Z,102004.11
2019-02-16T19:59:01.339Z,102004.27
2019-02-16T20:01:52.817Z,102005.39
2019-02-16T20:04:53.790Z,102004.39
2019-02-16T20:07:52.132Z,102002.84
2019-02-16T20:10:38.241Z,102005.47
2019-02-16T20:13:30.167Z,101997.58
2019-02-16T20:16:12.988Z,101998.50
2019-02-16T20:19:01.127Z,102002.64
2019-02-16T20:22:02.726Z,102000.63
2019-02-16T20:24:43.692Z,102005.12
2019-02-16T20:27:37.415Z,102008.68
2019-02-16T20:30:21.886Z,102002.17
2019-02-16T20:33:03.690Z,102001.87
2019-02-16T20:36:01.880Z,102003.64
2019-02-16T20:38:38.946Z,102003.26
2019-02-16T20:41:28.311Z,102003.91
2019-02-16T20:44:14.311Z,102004.91
2019-02-16T20:47:21.584Z,102010.72
2019-02-16T20:50:13.405Z,102009.55
2019-02-16T20:53:14.619Z,102006.22
2019-02-16T20:56:05.577Z,102007.23
2019-02-16T20:59:06.337Z,102013.75
2019-02-16T21:01:52.115Z,102010.48
2019-02-16T21:04:59.161Z,102008.73
2019-02-16T21:07:50.615Z,102012.37
2019-02-16T21:10:35.889Z,102008.44
2019-02-16T21:13:11.926Z,102008.12
2019-02-16T21:15:54.963Z,102014.70
2019-02-16T21:18:32.852Z,102002.87
2019-02-16T21:21:30.803Z,102006.81
2019-02-16T21:24:13.456Z,102003.44
2019-02-16T21:26:53.198Z,102003.13
2019-02-16T21:29:34.468Z,101998.86
2019-02-16T21:32:22.573Z,102003.27
2019-02-16T21:34:57.654Z,102003.27
2019-02-16T21:37:46.442Z,102001.88
2019-02-16T21:40:40.482Z,102003.66
2019-02-16T21:43:27.197Z,101999.33
2019-02-16T21:46:15.493Z,101995.91
2019-02-16T21:48:55.170Z,102001.31
2019-02-16T21:51:43.354Z,101992.66
2019-02-16T21:54:22.592Z,101999.47
2019-02-16T21:57:07.352Z,101995.35
2019-02-16T21:59:50.434Z,101998.97
2019-02-16T22:02:36.338Z,102002.59
2019-02-16T22:05:22.052Z,101998.51
2019-02-16T22:08:09.947Z,101996.09
2019-02-16T22:10:54.442Z,102003.20
2019-02-16T22:13:24.620Z,102003.34
2019-02-16T22:15:54.598Z,102003.86
2019-02-16T22:18:24.613Z,102000.48
2019-02-16T22:20:54.578Z,101997.75
2019-02-16T22:23:24.903Z,101993.23
2019-02-16T22:25:54.776Z,101996.09
2019-02-16T22:28:30.867Z,101988.03
2019-02-16T22:30:56.380Z,101986.80
2019-02-16T22:33:26.264Z,101982.92
2019-02-16T22:35:56.528Z,101980.69
2019-02-16T22:38:26.522Z,101975.30
2019-02-16T22:40:56.396Z,101974.77
2019-02-16T22:43:26.588Z,101975.63
2019-02-16T22:45:56.825Z,101982.58
2019-02-16T22:48:26.796Z,101986.84
2019-02-16T22:50:56.962Z,101992.77
2019-02-16T22:53:26.930Z,101995.66
2019-02-16T22:55:56.829Z,101994.20
2019-02-16T22:58:29.187Z,101997.61
2019-02-16T23:00:58.878Z,102000.63
2019-02-16T23:03:30.441Z,102010.34
2019-02-16T23:06:00.378Z,102007.80
2019-02-16T23:08:30.331Z,102004.45
2019-02-16T23:11:00.310Z,102004.77
2019-02-16T23:13:30.329Z,102008.91
2019-02-16T23:16:01.350Z,102010.42
2019-02-16T23:18:31.375Z,102006.09
2019-02-16T23:21:01.317Z,102008.89
2019-02-16T23:23:31.287Z,102008.23
2019-02-16T23:26:01.549Z,102008.77
2019-02-16T23:28:38.667Z,102012.83
2019-02-16T23:31:03.303Z,102011.27
2019-02-16T23:33:33.274Z,102008.41
2019-02-16T23:36:03.607Z,102009.46
2019-02-16T23:38:33.823Z,102006.19
2019-02-16T23:41:06.218Z,102003.73
2019-02-16T23:43:35.447Z,101999.53
2019-02-16T23:46:05.391Z,102000.45
2019-02-16T23:48:35.375Z,101993.16
2019-02-16T23:51:05.400Z,101990.73
2019-02-16T23:53:35.275Z,101991.36
2019-02-16T23:56:05.223Z,101990.77
2019-02-16T23:58:35.168Z,101985.32
